Time;durP1;ratioP1;P1;durP2;ratioP2;P2;SDS_P1;SDS_P2;PMS_P1;PMS_P2;Temp;Humidity;BMP_temperature;BMP_pressure;BME280_temperature;BME280_humidity;BME280_pressure;Samples;Min_cycle;Max_cycle;Signal;HPM_P1;HPM_P2
2022/10/15 00:00:44;;;;;;;42.45;20.27;;;12.50;99.90;;;;;;5049553;28;20120;-67
2022/10/15 00:03:09;;;;;;;38.90;21.85;;;12.50;99.90;;;;;;5050680;28;20044;-67
2022/10/15 00:05:41;;;;;;;37.35;19.70;;;12.40;99.90;;;;;;5050293;28;20033;-67
2022/10/15 00:08:09;;;;;;;45.63;21.33;;;12.40;99.90;;;;;;5050644;28;20070;-67
2022/10/15 00:10:35;;;;;;;42.92;19.95;;;12.40;99.90;;;;;;5063600;28;20033;-67
2022/10/15 00:13:01;;;;;;;34.55;18.00;;;12.30;99.90;;;;;;5073985;28;20492;-67
2022/10/15 00:15:28;;;;;;;44.03;20.63;;;12.30;99.90;;;;;;5074070;28;20522;-67
2022/10/15 00:17:54;;;;;;;43.35;21.40;;;12.30;99.90;;;;;;5073164;28;20087;-67
2022/10/15 00:20:19;;;;;;;47.92;21.30;;;12.30;99.90;;;;;;5073042;28;20588;-67
2022/10/15 00:22:45;;;;;;;40.25;21.90;;;12.30;99.90;;;;;;5074386;28;20032;-67
2022/10/15 00:25:11;;;;;;;48.85;21.30;;;12.40;99.90;;;;;;5072608;28;20055;-67
2022/10/15 00:27:36;;;;;;;45.60;21.02;;;12.30;99.90;;;;;;5056322;28;20044;-67
2022/10/15 00:30:04;;;;;;;50.83;21.15;;;12.30;99.90;;;;;;5072947;28;20058;-67
2022/10/15 00:32:31;;;;;;;40.03;21.02;;;12.30;99.90;;;;;;5072868;28;20136;-67
2022/10/15 00:34:56;;;;;;;48.53;20.52;;;12.30;99.90;;;;;;5072455;28;20045;-67
2022/10/15 00:37:22;;;;;;;44.15;20.30;;;12.30;99.90;;;;;;5074284;28;20041;-67
2022/10/15 00:39:48;;;;;;;46.35;19.92;;;12.30;99.90;;;;;;5074064;28;20040;-67
2022/10/15 00:42:14;;;;;;;49.67;21.08;;;12.30;99.90;;;;;;5073900;28;20119;-67
2022/10/15 00:44:56;;;;;;;49.35;21.67;;;12.30;99.90;;;;;;5073622;28;20032;-67
2022/10/15 00:47:36;;;;;;;39.13;20.08;;;12.30;99.90;;;;;;5074105;28;20044;-67
2022/10/15 00:50:04;;;;;;;43.55;21.40;;;12.30;99.90;;;;;;5073916;28;20047;-67
2022/10/15 00:52:56;;;;;;;38.63;20.77;;;12.20;99.90;;;;;;5073818;28;20200;-67
2022/10/15 00:55:31;;;;;;;40.85;20.95;;;12.30;99.90;;;;;;5014487;28;20509;-67
2022/10/15 00:58:04;;;;;;;43.55;21.08;;;12.30;99.90;;;;;;5031376;28;20640;-67
2022/10/15 01:00:30;;;;;;;41.47;21.55;;;12.30;99.90;;;;;;5031148;28;20510;-67
2022/10/15 01:02:55;;;;;;;44.13;20.98;;;12.20;99.90;;;;;;5031213;28;20106;-67
2022/10/15 01:05:22;;;;;;;46.72;21.05;;;12.30;99.90;;;;;;5030598;28;20041;-67
2022/10/15 01:07:47;;;;;;;53.17;21.75;;;12.20;99.90;;;;;;5014530;28;20526;-67
2022/10/15 01:10:14;;;;;;;47.00;20.95;;;12.20;99.90;;;;;;5031060;28;20047;-67
2022/10/15 01:12:42;;;;;;;43.15;22.08;;;12.20;99.90;;;;;;5030888;28;20052;-67
2022/10/15 01:15:38;;;;;;;50.55;23.05;;;12.30;99.90;;;;;;5030508;28;20046;-67
2022/10/15 01:18:14;;;;;;;43.03;21.33;;;12.20;99.90;;;;;;5047279;28;20037;-67
2022/10/15 01:20:49;;;;;;;48.45;22.17;;;12.30;99.90;;;;;;5030533;28;20037;-68
2022/10/15 01:23:32;;;;;;;49.50;22.17;;;12.30;99.90;;;;;;5030850;28;20073;-67
2022/10/15 01:26:06;;;;;;;44.45;20.25;;;12.20;99.90;;;;;;5047228;28;20060;-68
2022/10/15 01:28:45;;;;;;;51.97;22.98;;;12.20;99.90;;;;;;5047642;28;20514;-68
2022/10/15 01:31:43;;;;;;;44.58;21.45;;;12.20;99.90;;;;;;5034442;28;20144;-67
2022/10/15 01:34:21;;;;;;;48.13;20.33;;;12.20;99.90;;;;;;5071472;28;20119;-67
2022/10/15 01:37:12;;;;;;;51.22;22.48;;;12.20;99.90;;;;;;5073274;28;20052;-67
2022/10/15 01:39:58;;;;;;;41.78;21.67;;;12.10;99.90;;;;;;5070928;28;20052;-67
2022/10/15 01:42:32;;;;;;;43.45;20.13;;;12.20;99.90;;;;;;5072909;28;20036;-67
2022/10/15 01:45:07;;;;;;;44.65;20.73;;;12.10;99.90;;;;;;5072673;28;20111;-67
2022/10/15 01:47:50;;;;;;;44.63;21.13;;;12.20;99.90;;;;;;5073074;28;20044;-67
2022/10/15 01:50:23;;;;;;;49.75;21.42;;;12.20;99.90;;;;;;5072846;28;20052;-67
2022/10/15 01:52:50;;;;;;;;;;;12.10;99.90;;;;;;5073267;28;20040;-67
2022/10/15 01:55:19;;;;;;;38.03;18.42;;;12.10;99.90;;;;;;5072276;28;19916;-67
2022/10/15 01:57:46;;;;;;;43.78;20.35;;;12.10;99.90;;;;;;5071278;28;20515;-67
2022/10/15 02:00:12;;;;;;;45.17;20.10;;;12.10;99.90;;;;;;5072636;28;20416;-67
2022/10/15 02:02:38;;;;;;;42.88;21.20;;;12.10;99.90;;;;;;5072595;28;20098;-67
2022/10/15 02:05:08;;;;;;;45.33;20.95;;;12.10;99.90;;;;;;5072197;28;20041;-67
2022/10/15 02:08:11;;;;;;;44.95;20.00;;;12.10;99.90;;;;;;5071350;28;20067;-67
2022/10/15 02:10:52;;;;;;;42.33;19.27;;;12.10;99.90;;;;;;5072558;28;20067;-67
2022/10/15 02:13:43;;;;;;;40.22;19.08;;;12.10;99.90;;;;;;5072253;28;20126;-67
2022/10/15 02:16:26;;;;;;;41.75;19.80;;;12.10;99.90;;;;;;5072072;28;20048;-67
2022/10/15 02:19:19;;;;;;;42.33;19.52;;;12.10;99.90;;;;;;5072236;28;20051;-67
2022/10/15 02:21:55;;;;;;;47.85;20.10;;;12.10;99.90;;;;;;5064417;28;20040;-67
2022/10/15 02:24:27;;;;;;;43.08;19.23;;;12.10;99.90;;;;;;5071648;28;20544;-67
2022/10/15 02:26:56;;;;;;;46.25;19.88;;;12.10;99.90;;;;;;5070761;28;20041;-67
2022/10/15 02:29:25;;;;;;;39.92;19.75;;;12.00;99.90;;;;;;5072052;28;20072;-67
2022/10/15 02:31:52;;;;;;;40.33;19.13;;;12.00;99.90;;;;;;5071256;28;20422;-67
2022/10/15 02:34:21;;;;;;;43.08;20.42;;;12.00;99.90;;;;;;5071544;28;20040;-67
2022/10/15 02:36:47;;;;;;;41.92;19.50;;;12.10;99.90;;;;;;5070526;28;20040;-67
2022/10/15 02:39:18;;;;;;;43.95;19.83;;;12.00;99.90;;;;;;5071624;28;20116;-67
2022/10/15 02:41:45;;;;;;;39.35;18.80;;;12.00;99.90;;;;;;5071848;28;20032;-67
2022/10/15 02:44:11;;;;;;;44.55;19.65;;;12.10;99.90;;;;;;5071355;28;20458;-67
2022/10/15 02:46:37;;;;;;;37.80;18.23;;;12.10;99.90;;;;;;5070629;28;20044;-67
2022/10/15 02:49:02;;;;;;;47.25;20.45;;;12.10;99.90;;;;;;5071577;28;20507;-67
2022/10/15 02:51:31;;;;;;;39.80;18.38;;;12.10;99.90;;;;;;5071444;28;20033;-67
2022/10/15 02:53:57;;;;;;;39.88;17.23;;;12.00;99.90;;;;;;5071316;28;20043;-67
2022/10/15 02:56:22;;;;;;;41.35;19.58;;;12.00;99.90;;;;;;5071637;28;20033;-67
2022/10/15 02:58:48;;;;;;;40.42;19.55;;;12.00;99.90;;;;;;5071283;28;20097;-67
2022/10/15 03:01:13;;;;;;;39.92;19.08;;;12.00;99.90;;;;;;5070125;28;20127;-67
2022/10/15 03:03:39;;;;;;;41.55;19.88;;;12.00;99.90;;;;;;5071278;28;20119;-67
2022/10/15 03:06:05;;;;;;;44.72;20.65;;;12.00;99.90;;;;;;5070900;28;20166;-67
2022/10/15 03:08:30;;;;;;;40.80;18.83;;;12.00;99.90;;;;;;5071374;28;20125;-67
2022/10/15 03:11:00;;;;;;;42.17;19.33;;;12.00;99.90;;;;;;5069838;28;20040;-67
2022/10/15 03:13:26;;;;;;;40.70;18.90;;;12.00;99.90;;;;;;5071175;28;20101;-67
2022/10/15 03:15:51;;;;;;;45.15;19.67;;;12.00;99.90;;;;;;5069551;28;20123;-67
2022/10/15 03:18:17;;;;;;;40.80;19.20;;;12.00;99.90;;;;;;5071225;28;20409;-67
2022/10/15 03:20:43;;;;;;;44.25;18.73;;;12.00;99.90;;;;;;5071059;28;20043;-67
2022/10/15 03:23:08;;;;;;;39.88;19.63;;;12.00;99.90;;;;;;5069835;28;20032;-67
2022/10/15 03:25:34;;;;;;;39.70;19.33;;;12.00;99.90;;;;;;5070816;28;20041;-67
2022/10/15 03:27:59;;;;;;;40.50;20.00;;;12.00;99.90;;;;;;5070977;28;20032;-67
2022/10/15 03:30:25;;;;;;;40.53;18.00;;;12.00;99.90;;;;;;5070985;28;20040;-67
2022/10/15 03:32:50;;;;;;;45.13;19.77;;;12.00;99.90;;;;;;5071028;28;20523;-67
2022/10/15 03:35:16;;;;;;;42.17;19.38;;;12.00;99.90;;;;;;5070512;28;20055;-67
2022/10/15 03:37:42;;;;;;;36.83;17.65;;;12.00;99.90;;;;;;5069594;28;20047;-67
2022/10/15 03:40:08;;;;;;;39.85;19.10;;;12.00;99.90;;;;;;5070793;28;20098;-67
2022/10/15 03:42:33;;;;;;;38.50;18.88;;;12.00;99.90;;;;;;5070646;28;20041;-67
2022/10/15 03:44:59;;;;;;;40.00;19.13;;;12.00;99.90;;;;;;5070453;28;20530;-67
2022/10/15 03:47:24;;;;;;;44.15;19.02;;;12.00;99.90;;;;;;5069511;28;20036;-67
2022/10/15 03:49:50;;;;;;;37.42;18.35;;;12.00;99.90;;;;;;5070619;28;20048;-67
2022/10/15 03:52:16;;;;;;;39.75;19.23;;;12.00;99.90;;;;;;5069409;28;20044;-67
2022/10/15 03:54:42;;;;;;;39.33;18.52;;;12.00;99.90;;;;;;5070479;28;20049;-67
2022/10/15 03:57:07;;;;;;;37.85;18.77;;;11.90;99.90;;;;;;5070787;28;20170;-67
2022/10/15 03:59:33;;;;;;;38.00;18.80;;;11.90;99.90;;;;;;5070693;28;20120;-67
2022/10/15 04:01:58;;;;;;;34.95;18.73;;;11.90;99.90;;;;;;5070653;28;20540;-67
2022/10/15 04:04:24;;;;;;;45.35;19.58;;;11.90;99.90;;;;;;5070232;28;20407;-67
2022/10/15 04:06:49;;;;;;;38.58;18.98;;;11.90;99.90;;;;;;5069338;28;20071;-67
2022/10/15 04:09:15;;;;;;;38.55;18.23;;;11.90;99.90;;;;;;5070615;28;20048;-67
2022/10/15 04:11:40;;;;;;;37.95;19.00;;;11.90;99.90;;;;;;5069286;28;20127;-67
2022/10/15 04:14:06;;;;;;;40.35;20.48;;;11.90;99.90;;;;;;5070052;28;20040;-67
2022/10/15 04:16:32;;;;;;;41.15;18.77;;;11.90;99.90;;;;;;5070337;28;20044;-67
2022/10/15 04:18:58;;;;;;;35.03;20.23;;;11.90;99.90;;;;;;5069114;28;20400;-68
2022/10/15 04:21:24;;;;;;;43.97;20.20;;;11.90;99.90;;;;;;5070297;28;20045;-67
2022/10/15 04:23:50;;;;;;;41.95;19.60;;;11.90;99.90;;;;;;5070158;28;20028;-67
2022/10/15 04:26:16;;;;;;;43.58;20.23;;;11.90;99.90;;;;;;5070343;28;20043;-67
2022/10/15 04:28:41;;;;;;;41.05;20.67;;;11.90;99.90;;;;;;5070400;28;20175;-67
2022/10/15 04:31:07;;;;;;;40.95;19.58;;;11.90;99.90;;;;;;5070301;28;20052;-67
2022/10/15 04:33:33;;;;;;;40.50;20.25;;;11.90;99.90;;;;;;5068960;28;20043;-67
2022/10/15 04:36:00;;;;;;;43.30;20.00;;;11.80;99.90;;;;;;5070175;28;20115;-67
2022/10/15 04:38:26;;;;;;;37.50;19.65;;;11.80;99.90;;;;;;5070383;28;20408;-67
2022/10/15 04:41:04;;;;;;;40.67;18.80;;;11.70;99.90;;;;;;5070164;28;20040;-67
2022/10/15 04:43:29;;;;;;;34.00;18.45;;;11.70;99.90;;;;;;5070349;28;20036;-67
2022/10/15 04:45:57;;;;;;;42.20;20.27;;;11.70;99.90;;;;;;5068678;28;20507;-67
2022/10/15 04:48:22;;;;;;;42.90;20.23;;;11.70;99.90;;;;;;5070128;28;20064;-67
2022/10/15 04:50:48;;;;;;;41.83;19.35;;;11.60;99.90;;;;;;5068886;28;20500;-67
2022/10/15 04:53:13;;;;;;;42.88;19.98;;;11.60;99.90;;;;;;5070280;28;20037;-67
2022/10/15 04:55:39;;;;;;;41.38;19.85;;;11.60;99.90;;;;;;5071905;28;20078;-67
2022/10/15 04:58:04;;;;;;;44.13;21.80;;;11.60;99.90;;;;;;5072495;28;20101;-67
2022/10/15 05:00:30;;;;;;;42.53;20.95;;;11.60;99.90;;;;;;5073619;28;20080;-67
2022/10/15 05:02:55;;;;;;;40.03;20.45;;;11.60;99.90;;;;;;5072382;28;20257;-67
2022/10/15 05:05:21;;;;;;;47.58;22.60;;;11.60;99.90;;;;;;5073293;28;20047;-67
2022/10/15 05:07:46;;;;;;;42.53;21.52;;;11.50;99.90;;;;;;5073641;28;20032;-67
2022/10/15 05:10:12;;;;;;;42.13;20.63;;;11.60;99.90;;;;;;5073505;28;20052;-67
2022/10/15 05:12:37;;;;;;;43.47;21.15;;;11.60;99.90;;;;;;5073510;28;20036;-67
2022/10/15 05:15:03;;;;;;;46.50;22.30;;;11.60;99.90;;;;;;5072967;28;20048;-67
2022/10/15 05:17:29;;;;;;;45.03;22.02;;;11.50;99.90;;;;;;5073338;28;20040;-67
2022/10/15 05:19:55;;;;;;;43.45;21.60;;;11.60;99.90;;;;;;5072922;28;20037;-67
2022/10/15 05:22:20;;;;;;;45.65;21.85;;;11.60;99.90;;;;;;5073409;28;20506;-67
2022/10/15 05:24:46;;;;;;;42.67;22.00;;;11.50;99.90;;;;;;5072979;28;20587;-67
2022/10/15 05:27:11;;;;;;;46.97;21.80;;;11.60;99.90;;;;;;5073161;28;20052;-67
2022/10/15 05:29:38;;;;;;;42.90;22.45;;;11.50;99.90;;;;;;5071957;28;20118;-67
2022/10/15 05:32:04;;;;;;;43.72;20.90;;;11.50;99.90;;;;;;5071991;28;20123;-67
2022/10/15 05:34:30;;;;;;;43.72;21.23;;;11.50;99.90;;;;;;5072880;28;20120;-67
2022/10/15 05:36:55;;;;;;;46.85;21.95;;;11.60;99.90;;;;;;5073179;28;20115;-67
2022/10/15 05:39:21;;;;;;;46.05;21.85;;;11.50;99.90;;;;;;5071701;28;20084;-67
2022/10/15 05:41:46;;;;;;;48.72;21.48;;;11.50;99.90;;;;;;5072939;28;20036;-67
2022/10/15 05:44:12;;;;;;;42.65;21.13;;;11.60;99.90;;;;;;5072583;28;20590;-67
2022/10/15 05:46:38;;;;;;;44.95;21.58;;;11.50;99.90;;;;;;5072845;28;20037;-67
2022/10/15 05:49:03;;;;;;;48.45;21.27;;;11.50;99.90;;;;;;5072965;28;20037;-67
2022/10/15 05:51:29;;;;;;;50.47;22.65;;;11.50;99.90;;;;;;5072823;28;20485;-67
2022/10/15 05:53:56;;;;;;;49.75;22.50;;;11.60;99.90;;;;;;5072246;28;20040;-67
2022/10/15 05:56:23;;;;;;;51.70;22.25;;;11.60;99.90;;;;;;5072712;28;20033;-67
2022/10/15 05:58:49;;;;;;;44.88;21.15;;;11.60;99.90;;;;;;5072480;28;20051;-67
2022/10/15 06:01:15;;;;;;;51.70;22.70;;;11.60;99.90;;;;;;5072521;28;20032;-67
2022/10/15 06:03:41;;;;;;;41.35;22.20;;;11.60;99.90;;;;;;5070717;28;20512;-67
2022/10/15 06:06:33;;;;;;;55.53;23.70;;;11.60;99.90;;;;;;5068579;28;20086;-67
2022/10/15 06:09:00;;;;;;;46.60;22.13;;;11.60;99.90;;;;;;5069071;28;20129;-67
2022/10/15 06:11:26;;;;;;;45.85;21.00;;;11.60;99.90;;;;;;5071590;28;20489;-67
2022/10/15 06:13:52;;;;;;;51.75;23.48;;;11.60;99.90;;;;;;5071377;28;20041;-66
2022/10/15 06:16:17;;;;;;;50.00;22.25;;;11.60;99.90;;;;;;5070482;28;20041;-67
2022/10/15 06:18:43;;;;;;;49.35;21.58;;;11.60;99.90;;;;;;5071525;28;20072;-67
2022/10/15 06:21:09;;;;;;;49.35;23.23;;;11.70;99.90;;;;;;5072343;28;20040;-67
2022/10/15 06:23:35;;;;;;;47.05;20.92;;;11.70;99.90;;;;;;5072109;28;20037;-67
2022/10/15 06:26:04;;;;;;;47.97;21.35;;;11.60;99.90;;;;;;5071742;28;20040;-67
2022/10/15 06:28:30;;;;;;;50.35;22.50;;;11.70;99.90;;;;;;5072119;28;20685;-67
2022/10/15 06:31:00;;;;;;;47.25;21.25;;;11.70;99.90;;;;;;5072082;28;20044;-67
2022/10/15 06:33:26;;;;;;;45.63;20.77;;;11.70;99.90;;;;;;5072024;28;20492;-67
2022/10/15 06:35:51;;;;;;;49.20;21.75;;;11.80;99.90;;;;;;5071628;28;20481;-67
2022/10/15 06:38:17;;;;;;;49.88;21.77;;;11.70;99.90;;;;;;5071801;28;20048;-67
2022/10/15 06:40:42;;;;;;;51.25;22.40;;;11.80;99.90;;;;;;5071714;28;20165;-67
2022/10/15 06:43:10;;;;;;;44.00;20.73;;;11.80;99.90;;;;;;5071792;28;20565;-67
2022/10/15 06:45:38;;;;;;;47.58;22.23;;;11.80;99.90;;;;;;5071544;28;20047;-67
2022/10/15 06:48:04;;;;;;;43.10;21.95;;;11.90;99.90;;;;;;5071768;28;20036;-67
2022/10/15 06:50:31;;;;;;;52.05;22.58;;;11.90;99.90;;;;;;5071623;28;20043;-67
2022/10/15 06:52:57;;;;;;;47.92;20.83;;;12.00;99.90;;;;;;5071535;28;20032;-67
2022/10/15 06:55:22;;;;;;;45.85;21.38;;;12.00;99.90;;;;;;5071114;28;20132;-67
2022/10/15 06:57:49;;;;;;;50.72;22.48;;;12.00;99.90;;;;;;5071594;28;20072;-67
2022/10/15 07:00:15;;;;;;;46.47;22.63;;;12.00;99.90;;;;;;5071521;28;20045;-67
2022/10/15 07:02:41;;;;;;;49.92;22.73;;;12.00;99.90;;;;;;5070353;28;20433;-67
2022/10/15 07:05:07;;;;;;;48.40;22.10;;;12.00;99.90;;;;;;5071037;28;20041;-67
2022/10/15 07:07:33;;;;;;;49.28;22.70;;;12.10;99.90;;;;;;5071215;28;20037;-67
2022/10/15 07:09:58;;;;;;;43.42;21.17;;;12.10;99.90;;;;;;5071249;28;20040;-67
2022/10/15 07:12:24;;;;;;;46.47;22.27;;;12.20;99.90;;;;;;5069933;28;20496;-67
2022/10/15 07:14:49;;;;;;;46.08;22.98;;;12.10;99.90;;;;;;5070874;28;20029;-67
2022/10/15 07:17:16;;;;;;;49.83;22.40;;;12.10;99.90;;;;;;5071168;28;20048;-67
2022/10/15 07:19:42;;;;;;;49.63;22.23;;;12.10;99.90;;;;;;5071141;28;20049;-67
2022/10/15 07:22:08;;;;;;;45.78;22.33;;;12.20;99.90;;;;;;5071189;28;20090;-67
2022/10/15 07:24:33;;;;;;;47.42;21.02;;;12.10;99.90;;;;;;5070667;28;20037;-67
2022/10/15 07:26:59;;;;;;;47.70;22.40;;;12.20;99.90;;;;;;5069912;28;20076;-67
2022/10/15 07:29:24;;;;;;;46.47;22.27;;;12.20;99.90;;;;;;5071150;28;20048;-67
2022/10/15 07:31:50;;;;;;;47.13;21.80;;;12.20;99.90;;;;;;5071084;28;20044;-67
2022/10/15 07:34:15;;;;;;;50.00;22.38;;;12.20;99.90;;;;;;5070774;28;20037;-67
2022/10/15 07:36:41;;;;;;;42.38;23.23;;;12.30;99.90;;;;;;5065103;28;20094;-67
2022/10/15 07:39:08;;;;;;;45.47;22.05;;;12.30;99.90;;;;;;5058443;28;20076;-67
2022/10/15 07:41:33;;;;;;;42.42;21.80;;;12.30;99.90;;;;;;5056251;28;20044;-71
2022/10/15 07:43:59;;;;;;;42.33;21.92;;;12.40;99.90;;;;;;5050522;28;20032;-66
2022/10/15 07:46:25;;;;;;;40.72;21.90;;;12.30;99.90;;;;;;5050722;28;20083;-67
2022/10/15 07:48:50;;;;;;;50.88;24.27;;;12.40;99.90;;;;;;5050904;28;20459;-67
2022/10/15 07:51:16;;;;;;;48.35;23.40;;;12.40;99.90;;;;;;5050743;28;20111;-67
2022/10/15 07:53:42;;;;;;;47.92;24.15;;;12.40;99.90;;;;;;5066481;28;20069;-67
2022/10/15 07:56:10;;;;;;;48.30;22.90;;;12.40;99.90;;;;;;5070532;28;20041;-67
2022/10/15 07:58:37;;;;;;;44.33;22.58;;;12.40;99.90;;;;;;5070427;28;20501;-67
2022/10/15 08:01:07;;;;;;;49.10;25.02;;;12.50;99.90;;;;;;5070361;28;20464;-67
2022/10/15 08:03:33;;;;;;;49.15;24.30;;;12.50;99.90;;;;;;5070410;28;20043;-66
2022/10/15 08:06:00;;;;;;;46.95;23.98;;;12.50;99.90;;;;;;5069940;28;20106;-67
2022/10/15 08:08:26;;;;;;;54.35;24.88;;;12.50;99.90;;;;;;5070703;28;20040;-67
2022/10/15 08:10:52;;;;;;;54.00;26.70;;;12.60;99.90;;;;;;5070600;28;20419;-66
2022/10/15 08:13:18;;;;;;;51.30;24.95;;;12.60;99.90;;;;;;5070287;28;20037;-67
2022/10/15 08:15:43;;;;;;;49.28;25.13;;;12.70;99.90;;;;;;5067495;28;20086;-67
2022/10/15 08:18:09;;;;;;;47.53;24.60;;;12.70;99.90;;;;;;5070427;28;20492;-67
2022/10/15 08:20:36;;;;;;;50.45;23.90;;;12.70;99.90;;;;;;5070223;28;20558;-67
2022/10/15 08:23:02;;;;;;;53.75;26.00;;;12.70;99.90;;;;;;5070496;28;20040;-66
2022/10/15 08:25:28;;;;;;;56.92;25.48;;;12.70;99.90;;;;;;5070261;28;20041;-67
2022/10/15 08:27:55;;;;;;;53.50;26.48;;;12.80;99.90;;;;;;5070462;28;20064;-67
2022/10/15 08:30:20;;;;;;;54.42;26.55;;;12.80;99.90;;;;;;5072030;28;20040;-66
2022/10/15 08:32:46;;;;;;;52.22;26.38;;;12.80;99.90;;;;;;5074341;28;20115;-67
2022/10/15 08:35:11;;;;;;;55.85;25.92;;;12.90;99.90;;;;;;5073806;28;20052;-70
2022/10/15 08:37:37;;;;;;;54.03;26.75;;;12.90;99.90;;;;;;5067370;28;20032;-67
2022/10/15 08:40:04;;;;;;;52.55;25.70;;;12.90;99.90;;;;;;5068950;28;20119;-67
2022/10/15 08:42:36;;;;;;;53.67;26.27;;;13.00;99.90;;;;;;5053830;28;20041;-67
2022/10/15 08:45:14;;;;;;;56.88;26.63;;;13.00;99.90;;;;;;5053527;28;20615;-67
2022/10/15 08:47:49;;;;;;;60.00;26.60;;;13.00;99.90;;;;;;5053661;28;20037;-67
2022/10/15 08:50:33;;;;;;;53.72;25.60;;;13.00;99.90;;;;;;5052657;28;20044;-67
2022/10/15 08:52:59;;;;;;;61.70;26.75;;;13.10;99.90;;;;;;5054002;28;20041;-67
2022/10/15 08:55:32;;;;;;;55.92;25.65;;;13.10;99.90;;;;;;5057401;28;20036;-67
2022/10/15 08:58:20;;;;;;;55.35;26.13;;;13.10;99.90;;;;;;5059312;28;20448;-67
2022/10/15 09:00:53;;;;;;;53.90;25.45;;;13.10;99.90;;;;;;5057663;28;20045;-67
2022/10/15 09:03:38;;;;;;;53.25;24.27;;;13.10;99.90;;;;;;5070466;28;20048;-67
2022/10/15 09:06:23;;;;;;;60.58;24.30;;;13.10;99.90;;;;;;5066411;28;20067;-67
2022/10/15 09:09:15;;;;;;;57.10;24.73;;;13.00;99.90;;;;;;5072268;28;20071;-67
2022/10/15 09:11:51;;;;;;;64.30;26.02;;;13.00;99.90;;;;;;5072355;28;20043;-66
2022/10/15 09:14:31;;;;;;;57.15;24.50;;;13.00;99.90;;;;;;5070806;28;20090;-67
2022/10/15 09:17:01;;;;;;;60.83;24.67;;;13.00;99.90;;;;;;5071408;28;20032;-67
2022/10/15 09:19:28;;;;;;;53.38;23.63;;;12.90;99.90;;;;;;5072084;28;20074;-67
2022/10/15 09:21:54;;;;;;;64.22;25.33;;;12.90;99.90;;;;;;5070809;28;20025;-67
2022/10/15 09:24:26;;;;;;;54.20;23.90;;;12.90;99.90;;;;;;5071679;28;20033;-67
2022/10/15 09:27:25;;;;;;;67.38;26.02;;;12.90;99.90;;;;;;5071939;28;20044;-67
2022/10/15 09:29:59;;;;;;;60.45;24.83;;;13.00;99.90;;;;;;5072396;28;20579;-67
2022/10/15 09:32:59;;;;;;;60.60;23.73;;;12.90;99.90;;;;;;5072485;28;20504;-67
2022/10/15 09:35:35;;;;;;;60.17;23.30;;;12.90;99.90;;;;;;5035920;28;20519;-67
2022/10/15 09:38:23;;;;;;;56.22;23.17;;;12.90;99.90;;;;;;5071657;28;20570;-67
2022/10/15 09:41:07;;;;;;;56.08;22.55;;;12.90;99.90;;;;;;5072929;28;20040;-67
2022/10/15 09:43:37;;;;;;;52.28;20.42;;;12.90;99.90;;;;;;5072954;28;20534;-67
2022/10/15 09:46:03;;;;;;;49.92;19.20;;;12.90;99.90;;;;;;5065181;28;20036;-67
2022/10/15 09:48:34;;;;;;;46.75;19.73;;;13.00;99.90;;;;;;5065993;28;20050;-67
2022/10/15 09:51:17;;;;;;;48.50;19.85;;;13.00;99.90;;;;;;5063337;28;20048;-67
2022/10/15 09:53:51;;;;;;;50.85;19.40;;;13.00;99.90;;;;;;5056608;28;20499;-67
2022/10/15 09:56:25;;;;;;;49.70;20.85;;;13.00;99.90;;;;;;5071605;28;20056;-67
2022/10/15 09:58:53;;;;;;;43.83;19.02;;;13.00;99.90;;;;;;5070674;28;20093;-67
2022/10/15 10:01:24;;;;;;;47.25;19.70;;;13.00;99.90;;;;;;5069950;28;20033;-67
2022/10/15 10:03:53;;;;;;;40.50;20.17;;;13.10;99.90;;;;;;5051313;28;20245;-67
2022/10/15 10:06:21;;;;;;;49.25;20.00;;;13.10;99.90;;;;;;5051585;28;20064;-67
2022/10/15 10:08:51;;;;;;;44.17;19.02;;;13.10;99.90;;;;;;5051942;28;20045;-67
2022/10/15 10:11:18;;;;;;;41.25;18.40;;;13.20;99.90;;;;;;5055576;28;20390;-67
2022/10/15 10:13:50;;;;;;;40.33;18.08;;;13.20;99.90;;;;;;5070847;28;20555;-67
2022/10/15 10:16:19;;;;;;;44.25;17.60;;;13.30;99.90;;;;;;5070718;28;20102;-67
2022/10/15 10:19:20;;;;;;;46.75;18.73;;;13.40;99.90;;;;;;5072144;28;20112;-67
2022/10/15 10:21:46;;;;;;;46.20;17.73;;;13.50;99.90;;;;;;5071827;28;20059;-67
2022/10/15 10:24:29;;;;;;;36.53;17.25;;;13.50;99.90;;;;;;5070441;28;20044;-67
2022/10/15 10:26:54;;;;;;;;;;;13.50;99.90;;;;;;5071180;28;20037;-67
2022/10/15 10:29:22;;;;;;;40.97;17.38;;;13.60;99.90;;;;;;5072072;28;20441;-67
2022/10/15 10:31:50;;;;;;;39.53;16.45;;;13.60;99.90;;;;;;5071696;28;20055;-67
2022/10/15 10:34:24;;;;;;;31.75;13.60;;;13.70;99.90;;;;;;5071655;28;20049;-66
2022/10/15 10:36:51;;;;;;;41.95;17.67;;;13.80;99.90;;;;;;5070602;28;20050;-67
2022/10/15 10:39:31;;;;;;;34.55;17.00;;;13.90;99.90;;;;;;5066903;28;20560;-67
2022/10/15 10:41:59;;;;;;;36.85;16.33;;;13.90;99.90;;;;;;5071694;28;20033;-67
2022/10/15 10:44:31;;;;;;;31.48;16.15;;;13.90;99.90;;;;;;5071146;28;20045;-67
2022/10/15 10:47:18;;;;;;;38.83;16.67;;;13.90;99.90;;;;;;5070203;28;20544;-67
2022/10/15 10:49:56;;;;;;;39.20;17.02;;;14.00;99.90;;;;;;5071294;28;20044;-67
2022/10/15 10:52:25;;;;;;;31.67;15.40;;;14.00;99.90;;;;;;5070935;28;20036;-68
2022/10/15 10:55:01;;;;;;;33.70;16.70;;;14.00;99.90;;;;;;5070987;28;20408;-68
2022/10/15 10:57:34;;;;;;;35.45;15.68;;;14.10;99.90;;;;;;5070981;28;20146;-67
2022/10/15 11:00:03;;;;;;;35.95;16.15;;;14.10;99.90;;;;;;5069312;28;20055;-67
2022/10/15 11:02:28;;;;;;;30.67;15.02;;;14.10;99.90;;;;;;5071135;28;20040;-67
2022/10/15 11:04:54;;;;;;;27.10;13.88;;;14.20;99.90;;;;;;5069489;28;20029;-66
2022/10/15 11:07:43;;;;;;;25.80;12.90;;;14.20;99.90;;;;;;5071355;28;20040;-66
2022/10/15 11:10:48;;;;;;;28.08;14.27;;;14.20;99.90;;;;;;5071369;28;20087;-67
2022/10/15 11:13:25;;;;;;;24.65;13.13;;;14.20;99.90;;;;;;5070747;28;20048;-67
2022/10/15 11:16:07;;;;;;;25.52;13.13;;;14.10;99.90;;;;;;5071053;28;20047;-66
2022/10/15 11:19:10;;;;;;;25.00;13.80;;;14.10;99.90;;;;;;5066994;28;20036;-67
2022/10/15 11:21:49;;;;;;;24.05;12.57;;;14.10;99.90;;;;;;5051444;28;20041;-66
2022/10/15 11:24:40;;;;;;;30.45;14.60;;;14.10;99.90;;;;;;5050903;28;20036;-70
2022/10/15 11:27:27;;;;;;;32.58;13.90;;;14.20;99.90;;;;;;5049861;28;20041;-67
2022/10/15 11:30:35;;;;;;;30.33;15.10;;;14.10;99.90;;;;;;5051379;28;20044;-67
2022/10/15 11:33:39;;;;;;;26.58;12.55;;;14.20;99.90;;;;;;5013787;28;20115;-67
2022/10/15 11:36:25;;;;;;;29.70;13.50;;;14.20;99.90;;;;;;5016479;28;20057;-73
2022/10/15 11:39:11;;;;;;;29.20;13.38;;;14.30;99.90;;;;;;5049295;28;20051;-75
2022/10/15 11:41:51;;;;;;;24.67;12.30;;;14.30;99.90;;;;;;5050514;28;20049;-67
2022/10/15 11:44:28;;;;;;;26.88;13.43;;;14.30;99.90;;;;;;5050567;28;20505;-67
2022/10/15 11:47:26;;;;;;;27.88;13.98;;;14.30;99.90;;;;;;5062827;28;20063;-67
2022/10/15 11:50:17;;;;;;;24.55;12.05;;;14.30;99.90;;;;;;5070155;28;20566;-67
2022/10/15 11:52:43;;;;;;;24.08;12.88;;;14.40;99.90;;;;;;5070865;28;20040;-67
2022/10/15 11:55:20;;;;;;;22.50;11.82;;;14.40;99.90;;;;;;5070742;28;20101;-67
2022/10/15 11:57:50;;;;;;;25.13;13.13;;;14.40;99.90;;;;;;5070665;28;20493;-67
2022/10/15 12:00:33;;;;;;;25.08;13.00;;;14.40;99.90;;;;;;5069452;28;20045;-67
2022/10/15 12:03:06;;;;;;;24.30;12.75;;;14.50;99.90;;;;;;5070753;28;20115;-70
2022/10/15 12:05:37;;;;;;;27.67;12.63;;;14.50;99.90;;;;;;5074403;28;20072;-67
2022/10/15 12:08:04;;;;;;;27.02;13.05;;;14.50;99.90;;;;;;5074872;28;20535;-67
2022/10/15 12:11:03;;;;;;;27.30;13.75;;;14.50;99.90;;;;;;5074785;28;20113;-67
2022/10/15 12:13:39;;;;;;;29.92;12.93;;;14.60;99.90;;;;;;5074518;28;20127;-67
2022/10/15 12:16:14;;;;;;;25.30;12.50;;;14.60;99.90;;;;;;5073565;28;20072;-67
2022/10/15 12:19:10;;;;;;;25.00;12.23;;;14.60;99.90;;;;;;5074755;28;20455;-67
2022/10/15 12:21:53;;;;;;;26.65;12.75;;;14.60;99.90;;;;;;5074568;28;20507;-68
2022/10/15 12:24:37;;;;;;;;;;;14.60;99.90;;;;;;5072287;28;20037;-68
2022/10/15 12:27:20;;;;;;;25.40;12.95;;;14.60;99.90;;;;;;5054443;28;19963;-68
2022/10/15 12:30:11;;;;;;;23.40;12.35;;;14.60;99.90;;;;;;5054344;28;20413;-68
2022/10/15 12:32:46;;;;;;;26.23;13.05;;;14.60;99.90;;;;;;5054503;28;20051;-68
2022/10/15 12:35:14;;;;;;;29.20;14.02;;;14.60;99.90;;;;;;5053878;28;20045;-69
2022/10/15 12:37:43;;;;;;;25.20;12.38;;;14.60;99.90;;;;;;5054291;28;20033;-69
2022/10/15 12:40:26;;;;;;;27.38;13.93;;;14.60;99.90;;;;;;5053873;28;20401;-69
2022/10/15 12:43:10;;;;;;;27.02;12.77;;;14.60;99.90;;;;;;5070178;28;20032;-68
2022/10/15 12:45:59;;;;;;;27.40;12.73;;;14.70;99.90;;;;;;5072882;28;20045;-68
2022/10/15 12:48:38;;;;;;;25.13;13.20;;;14.70;99.90;;;;;;5072781;28;20427;-68